sensor_id;sensor_type;location;lat;lon;timestamp;temperature;humidity
59572;DHT22;59406;45.602;11.904;2023-04-30T00:01:03;22.00;90.10
59572;DHT22;59406;45.602;11.904;2023-04-30T00:03:29;22.10;90.10
59572;DHT22;59406;45.602;11.904;2023-04-30T00:05:55;22.00;89.80
59572;DHT22;59406;45.602;11.904;2023-04-30T00:08:21;22.10;89.90
59572;DHT22;59406;45.602;11.904;2023-04-30T00:10:47;22.00;89.70
59572;DHT22;59406;45.602;11.904;2023-04-30T00:13:13;22.00;89.50
59572;DHT22;59406;45.602;11.904;2023-04-30T00:15:39;22.00;89.30
59572;DHT22;59406;45.602;11.904;2023-04-30T00:18:06;22.00;89.50
59572;DHT22;59406;45.602;11.904;2023-04-30T00:20:32;22.00;89.50
59572;DHT22;59406;45.602;11.904;2023-04-30T00:22:59;22.00;89.80
59572;DHT22;59406;45.602;11.904;2023-04-30T00:25:25;22.00;89.80
59572;DHT22;59406;45.602;11.904;2023-04-30T00:27:51;22.10;89.80
59572;DHT22;59406;45.602;11.904;2023-04-30T00:30:17;22.10;89.60
59572;DHT22;59406;45.602;11.904;2023-04-30T00:32:43;22.00;89.30
59572;DHT22;59406;45.602;11.904;2023-04-30T00:35:10;22.00;89.30
59572;DHT22;59406;45.602;11.904;2023-04-30T00:37:36;22.00;89.50
59572;DHT22;59406;45.602;11.904;2023-04-30T00:40:03;22.00;89.50
59572;DHT22;59406;45.602;11.904;2023-04-30T00:42:29;22.00;89.50
59572;DHT22;59406;45.602;11.904;2023-04-30T00:44:55;22.00;89.60
59572;DHT22;59406;45.602;11.904;2023-04-30T00:47:21;22.00;89.70
59572;DHT22;59406;45.602;11.904;2023-04-30T00:49:47;22.00;89.70
59572;DHT22;59406;45.602;11.904;2023-04-30T00:52:13;22.00;89.80
59572;DHT22;59406;45.602;11.904;2023-04-30T00:54:39;22.00;89.80
59572;DHT22;59406;45.602;11.904;2023-04-30T00:57:06;22.00;89.90
59572;DHT22;59406;45.602;11.904;2023-04-30T00:59:34;21.90;90.00
59572;DHT22;59406;45.602;11.904;2023-04-30T01:02:01;22.00;89.90
59572;DHT22;59406;45.602;11.904;2023-04-30T01:04:28;22.00;89.80
59572;DHT22;59406;45.602;11.904;2023-04-30T01:06:54;22.00;89.90
59572;DHT22;59406;45.602;11.904;2023-04-30T01:09:21;22.00;89.90
59572;DHT22;59406;45.602;11.904;2023-04-30T01:12:15;21.90;89.90
59572;DHT22;59406;45.602;11.904;2023-04-30T01:17:51;21.90;90.10
59572;DHT22;59406;45.602;11.904;2023-04-30T01:20:18;22.00;89.70
59572;DHT22;59406;45.602;11.904;2023-04-30T01:22:54;21.90;89.50
59572;DHT22;59406;45.602;11.904;2023-04-30T01:28:04;21.90;89.90
59572;DHT22;59406;45.602;11.904;2023-04-30T01:30:34;21.90;89.80
59572;DHT22;59406;45.602;11.904;2023-04-30T01:33:01;22.00;89.90
59572;DHT22;59406;45.602;11.904;2023-04-30T01:43:38;21.90;89.90
59572;DHT22;59406;45.602;11.904;2023-04-30T01:46:34;21.90;90.20
59572;DHT22;59406;45.602;11.904;2023-04-30T01:49:07;21.90;89.90
59572;DHT22;59406;45.602;11.904;2023-04-30T01:51:43;21.90;89.90
59572;DHT22;59406;45.602;11.904;2023-04-30T01:56:58;21.90;90.60
59572;DHT22;59406;45.602;11.904;2023-04-30T01:59:32;21.90;90.20
59572;DHT22;59406;45.602;11.904;2023-04-30T02:01:59;21.90;89.90
59572;DHT22;59406;45.602;11.904;2023-04-30T02:04:25;21.80;89.90
59572;DHT22;59406;45.602;11.904;2023-04-30T02:06:51;21.80;90.20
59572;DHT22;59406;45.602;11.904;2023-04-30T02:09:17;21.90;90.20
59572;DHT22;59406;45.602;11.904;2023-04-30T02:11:43;21.90;90.30
59572;DHT22;59406;45.602;11.904;2023-04-30T02:14:08;21.90;90.50
59572;DHT22;59406;45.602;11.904;2023-04-30T02:16:34;21.90;90.70
59572;DHT22;59406;45.602;11.904;2023-04-30T02:19:01;21.90;90.60
59572;DHT22;59406;45.602;11.904;2023-04-30T02:21:26;21.90;90.80
59572;DHT22;59406;45.602;11.904;2023-04-30T02:23:52;21.90;91.00
59572;DHT22;59406;45.602;11.904;2023-04-30T02:26:19;21.90;91.10
59572;DHT22;59406;45.602;11.904;2023-04-30T02:28:45;21.90;91.10
59572;DHT22;59406;45.602;11.904;2023-04-30T02:31:11;21.90;91.20
59572;DHT22;59406;45.602;11.904;2023-04-30T02:33:37;21.90;91.20
59572;DHT22;59406;45.602;11.904;2023-04-30T02:36:03;21.90;91.30
59572;DHT22;59406;45.602;11.904;2023-04-30T02:38:29;22.00;91.30
59572;DHT22;59406;45.602;11.904;2023-04-30T02:40:55;21.90;91.40
59572;DHT22;59406;45.602;11.904;2023-04-30T02:43:20;21.90;91.40
59572;DHT22;59406;45.602;11.904;2023-04-30T02:45:46;21.90;91.40
59572;DHT22;59406;45.602;11.904;2023-04-30T02:48:12;21.90;91.50
59572;DHT22;59406;45.602;11.904;2023-04-30T02:50:38;21.90;91.20
59572;DHT22;59406;45.602;11.904;2023-04-30T02:53:04;21.80;90.90
59572;DHT22;59406;45.602;11.904;2023-04-30T02:55:30;21.80;90.80
59572;DHT22;59406;45.602;11.904;2023-04-30T02:57:57;21.80;90.80
59572;DHT22;59406;45.602;11.904;2023-04-30T03:00:23;21.80;90.80
59572;DHT22;59406;45.602;11.904;2023-04-30T03:02:49;21.80;90.90
59572;DHT22;59406;45.602;11.904;2023-04-30T03:05:14;21.80;91.30
59572;DHT22;59406;45.602;11.904;2023-04-30T03:07:41;21.90;91.50
59572;DHT22;59406;45.602;11.904;2023-04-30T03:10:07;21.90;91.50
59572;DHT22;59406;45.602;11.904;2023-04-30T03:12:33;21.80;91.60
59572;DHT22;59406;45.602;11.904;2023-04-30T03:14:59;21.80;91.60
59572;DHT22;59406;45.602;11.904;2023-04-30T03:17:25;21.90;91.50
59572;DHT22;59406;45.602;11.904;2023-04-30T03:19:50;21.90;91.60
59572;DHT22;59406;45.602;11.904;2023-04-30T03:22:16;21.80;91.60
59572;DHT22;59406;45.602;11.904;2023-04-30T03:24:44;21.90;91.60
59572;DHT22;59406;45.602;11.904;2023-04-30T03:27:10;21.80;91.60
59572;DHT22;59406;45.602;11.904;2023-04-30T03:29:36;21.80;91.50
59572;DHT22;59406;45.602;11.904;2023-04-30T03:32:02;21.90;91.60
59572;DHT22;59406;45.602;11.904;2023-04-30T03:34:28;21.80;91.60
59572;DHT22;59406;45.602;11.904;2023-04-30T03:36:56;21.90;91.60
59572;DHT22;59406;45.602;11.904;2023-04-30T03:39:21;21.80;91.70
59572;DHT22;59406;45.602;11.904;2023-04-30T03:41:47;21.80;91.60
59572;DHT22;59406;45.602;11.904;2023-04-30T03:44:13;21.90;91.60
59572;DHT22;59406;45.602;11.904;2023-04-30T03:46:43;21.80;91.60
59572;DHT22;59406;45.602;11.904;2023-04-30T03:49:09;21.80;92.00
59572;DHT22;59406;45.602;11.904;2023-04-30T03:51:36;21.80;91.70
59572;DHT22;59406;45.602;11.904;2023-04-30T03:54:05;21.80;91.60
59572;DHT22;59406;45.602;11.904;2023-04-30T03:56:32;21.70;91.80
59572;DHT22;59406;45.602;11.904;2023-04-30T03:58:58;21.80;91.90
59572;DHT22;59406;45.602;11.904;2023-04-30T04:01:24;21.80;91.70
59572;DHT22;59406;45.602;11.904;2023-04-30T04:03:50;21.80;91.70
59572;DHT22;59406;45.602;11.904;2023-04-30T04:06:16;21.80;91.70
59572;DHT22;59406;45.602;11.904;2023-04-30T04:08:42;21.80;91.70
59572;DHT22;59406;45.602;11.904;2023-04-30T04:11:11;21.80;91.70
59572;DHT22;59406;45.602;11.904;2023-04-30T04:13:38;21.80;91.60
59572;DHT22;59406;45.602;11.904;2023-04-30T04:16:04;21.80;91.00
59572;DHT22;59406;45.602;11.904;2023-04-30T04:18:30;21.80;90.80
59572;DHT22;59406;45.602;11.904;2023-04-30T04:20:56;21.80;90.90
59572;DHT22;59406;45.602;11.904;2023-04-30T04:23:22;21.70;90.80
59572;DHT22;59406;45.602;11.904;2023-04-30T04:25:48;21.80;90.70
59572;DHT22;59406;45.602;11.904;2023-04-30T04:28:15;21.80;90.50
59572;DHT22;59406;45.602;11.904;2023-04-30T04:30:42;21.70;89.90
59572;DHT22;59406;45.602;11.904;2023-04-30T04:33:08;21.80;89.90
59572;DHT22;59406;45.602;11.904;2023-04-30T04:35:35;21.70;89.70
59572;DHT22;59406;45.602;11.904;2023-04-30T04:38:01;21.70;89.80
59572;DHT22;59406;45.602;11.904;2023-04-30T04:40:27;21.70;90.00
59572;DHT22;59406;45.602;11.904;2023-04-30T04:42:53;21.70;89.90
59572;DHT22;59406;45.602;11.904;2023-04-30T04:45:20;21.70;90.00
59572;DHT22;59406;45.602;11.904;2023-04-30T04:47:46;21.70;90.20
59572;DHT22;59406;45.602;11.904;2023-04-30T04:50:13;21.70;90.00
59572;DHT22;59406;45.602;11.904;2023-04-30T04:52:39;21.70;90.10
59572;DHT22;59406;45.602;11.904;2023-04-30T04:55:05;21.70;90.10
59572;DHT22;59406;45.602;11.904;2023-04-30T04:57:32;21.70;90.30
59572;DHT22;59406;45.602;11.904;2023-04-30T04:59:58;21.70;90.10
59572;DHT22;59406;45.602;11.904;2023-04-30T05:02:24;21.70;90.00
59572;DHT22;59406;45.602;11.904;2023-04-30T05:04:50;21.70;89.70
59572;DHT22;59406;45.602;11.904;2023-04-30T05:07:16;21.80;89.90
59572;DHT22;59406;45.602;11.904;2023-04-30T05:09:44;21.70;90.00
59572;DHT22;59406;45.602;11.904;2023-04-30T05:12:11;21.70;90.20
59572;DHT22;59406;45.602;11.904;2023-04-30T05:14:37;21.70;90.20
59572;DHT22;59406;45.602;11.904;2023-04-30T05:17:03;21.70;90.40
59572;DHT22;59406;45.602;11.904;2023-04-30T05:19:29;21.70;90.00
59572;DHT22;59406;45.602;11.904;2023-04-30T05:21:55;21.70;90.00
59572;DHT22;59406;45.602;11.904;2023-04-30T05:24:21;21.80;89.80
59572;DHT22;59406;45.602;11.904;2023-04-30T05:26:47;21.80;89.80
59572;DHT22;59406;45.602;11.904;2023-04-30T05:29:13;21.70;89.90
59572;DHT22;59406;45.602;11.904;2023-04-30T05:31:39;21.70;90.20
59572;DHT22;59406;45.602;11.904;2023-04-30T05:34:05;21.80;90.40
59572;DHT22;59406;45.602;11.904;2023-04-30T05:36:31;21.80;90.80
59572;DHT22;59406;45.602;11.904;2023-04-30T05:38:57;21.80;91.00
59572;DHT22;59406;45.602;11.904;2023-04-30T05:41:23;21.80;91.20
59572;DHT22;59406;45.602;11.904;2023-04-30T05:43:49;21.80;91.30
59572;DHT22;59406;45.602;11.904;2023-04-30T05:46:14;21.70;91.20
59572;DHT22;59406;45.602;11.904;2023-04-30T05:48:40;21.80;91.30
59572;DHT22;59406;45.602;11.904;2023-04-30T05:51:06;21.80;91.80
59572;DHT22;59406;45.602;11.904;2023-04-30T05:53:33;21.80;91.90
59572;DHT22;59406;45.602;11.904;2023-04-30T05:55:59;21.80;91.70
59572;DHT22;59406;45.602;11.904;2023-04-30T05:58:25;21.80;91.60
59572;DHT22;59406;45.602;11.904;2023-04-30T06:00:52;21.80;91.50
59572;DHT22;59406;45.602;11.904;2023-04-30T06:03:19;21.80;91.80
59572;DHT22;59406;45.602;11.904;2023-04-30T06:05:46;21.80;91.70
59572;DHT22;59406;45.602;11.904;2023-04-30T06:08:12;21.70;91.80
59572;DHT22;59406;45.602;11.904;2023-04-30T06:10:38;21.80;92.10
59572;DHT22;59406;45.602;11.904;2023-04-30T06:13:05;21.80;92.30
59572;DHT22;59406;45.602;11.904;2023-04-30T06:15:31;21.80;92.50
59572;DHT22;59406;45.602;11.904;2023-04-30T06:17:57;21.80;91.90
59572;DHT22;59406;45.602;11.904;2023-04-30T06:20:23;21.70;91.80
59572;DHT22;59406;45.602;11.904;2023-04-30T06:22:49;21.70;91.90
59572;DHT22;59406;45.602;11.904;2023-04-30T06:25:15;21.80;92.10
59572;DHT22;59406;45.602;11.904;2023-04-30T06:27:41;21.80;92.20
59572;DHT22;59406;45.602;11.904;2023-04-30T06:30:07;21.70;91.80
59572;DHT22;59406;45.602;11.904;2023-04-30T06:32:36;21.80;91.80
59572;DHT22;59406;45.602;11.904;2023-04-30T06:35:02;21.80;92.40
59572;DHT22;59406;45.602;11.904;2023-04-30T06:37:28;21.80;92.00
59572;DHT22;59406;45.602;11.904;2023-04-30T06:39:54;21.80;92.00
59572;DHT22;59406;45.602;11.904;2023-04-30T06:42:20;21.80;92.00
59572;DHT22;59406;45.602;11.904;2023-04-30T06:44:46;21.70;92.10
59572;DHT22;59406;45.602;11.904;2023-04-30T06:47:12;21.80;91.80
59572;DHT22;59406;45.602;11.904;2023-04-30T06:49:38;21.80;91.90
59572;DHT22;59406;45.602;11.904;2023-04-30T06:52:04;21.80;91.70
59572;DHT22;59406;45.602;11.904;2023-04-30T06:54:30;21.80;92.10
59572;DHT22;59406;45.602;11.904;2023-04-30T06:56:56;21.80;92.10
59572;DHT22;59406;45.602;11.904;2023-04-30T06:59:22;21.80;92.10
59572;DHT22;59406;45.602;11.904;2023-04-30T07:01:48;21.90;92.10
59572;DHT22;59406;45.602;11.904;2023-04-30T07:04:14;21.80;92.00
59572;DHT22;59406;45.602;11.904;2023-04-30T07:06:40;21.80;92.00
59572;DHT22;59406;45.602;11.904;2023-04-30T07:09:06;21.70;92.00
59572;DHT22;59406;45.602;11.904;2023-04-30T07:11:32;21.80;92.10
59572;DHT22;59406;45.602;11.904;2023-04-30T07:13:57;21.90;92.10
59572;DHT22;59406;45.602;11.904;2023-04-30T07:16:24;21.80;92.20
59572;DHT22;59406;45.602;11.904;2023-04-30T07:18:52;21.80;92.40
59572;DHT22;59406;45.602;11.904;2023-04-30T07:21:18;21.80;92.30
59572;DHT22;59406;45.602;11.904;2023-04-30T07:23:44;21.80;92.20
59572;DHT22;59406;45.602;11.904;2023-04-30T07:26:10;21.80;92.20
59572;DHT22;59406;45.602;11.904;2023-04-30T07:28:36;21.80;92.40
59572;DHT22;59406;45.602;11.904;2023-04-30T07:31:02;21.80;92.30
59572;DHT22;59406;45.602;11.904;2023-04-30T07:33:28;21.80;92.40
59572;DHT22;59406;45.602;11.904;2023-04-30T07:35:54;21.90;92.60
59572;DHT22;59406;45.602;11.904;2023-04-30T07:38:21;21.70;92.60
59572;DHT22;59406;45.602;11.904;2023-04-30T07:40:47;21.90;92.60
59572;DHT22;59406;45.602;11.904;2023-04-30T07:43:13;21.80;92.60
59572;DHT22;59406;45.602;11.904;2023-04-30T07:45:39;21.80;92.70
59572;DHT22;59406;45.602;11.904;2023-04-30T07:48:05;21.80;92.50
59572;DHT22;59406;45.602;11.904;2023-04-30T07:50:31;21.80;92.60
59572;DHT22;59406;45.602;11.904;2023-04-30T07:52:59;21.90;92.50
59572;DHT22;59406;45.602;11.904;2023-04-30T07:55:26;21.90;92.50
59572;DHT22;59406;45.602;11.904;2023-04-30T07:57:52;21.80;92.40
59572;DHT22;59406;45.602;11.904;2023-04-30T08:00:18;21.90;92.20
59572;DHT22;59406;45.602;11.904;2023-04-30T08:02:44;21.80;92.40
59572;DHT22;59406;45.602;11.904;2023-04-30T08:05:10;21.80;92.30
59572;DHT22;59406;45.602;11.904;2023-04-30T08:07:36;21.90;92.40
59572;DHT22;59406;45.602;11.904;2023-04-30T08:10:02;21.80;92.20
59572;DHT22;59406;45.602;11.904;2023-04-30T08:12:28;21.80;92.30
59572;DHT22;59406;45.602;11.904;2023-04-30T08:15:02;21.80;92.10
59572;DHT22;59406;45.602;11.904;2023-04-30T08:17:30;21.90;92.60
59572;DHT22;59406;45.602;11.904;2023-04-30T08:19:56;21.90;92.10
59572;DHT22;59406;45.602;11.904;2023-04-30T08:22:22;21.90;92.20
59572;DHT22;59406;45.602;11.904;2023-04-30T08:24:48;21.80;91.90
59572;DHT22;59406;45.602;11.904;2023-04-30T08:27:15;21.80;91.90
59572;DHT22;59406;45.602;11.904;2023-04-30T08:29:41;21.90;91.70
59572;DHT22;59406;45.602;11.904;2023-04-30T08:32:07;21.90;91.70
59572;DHT22;59406;45.602;11.904;2023-04-30T08:34:33;21.90;91.70
59572;DHT22;59406;45.602;11.904;2023-04-30T08:36:59;21.90;91.60
59572;DHT22;59406;45.602;11.904;2023-04-30T08:39:26;22.00;91.50
59572;DHT22;59406;45.602;11.904;2023-04-30T08:41:55;21.90;91.50
59572;DHT22;59406;45.602;11.904;2023-04-30T08:44:22;21.90;91.60
59572;DHT22;59406;45.602;11.904;2023-04-30T08:46:55;21.90;91.40
59572;DHT22;59406;45.602;11.904;2023-04-30T08:49:23;21.90;91.70
59572;DHT22;59406;45.602;11.904;2023-04-30T08:51:50;21.90;91.30
59572;DHT22;59406;45.602;11.904;2023-04-30T08:54:17;22.00;91.40
59572;DHT22;59406;45.602;11.904;2023-04-30T08:56:46;22.00;91.40
59572;DHT22;59406;45.602;11.904;2023-04-30T08:59:12;21.90;91.60
59572;DHT22;59406;45.602;11.904;2023-04-30T09:01:39;21.90;91.40
59572;DHT22;59406;45.602;11.904;2023-04-30T09:04:06;21.90;91.50
59572;DHT22;59406;45.602;11.904;2023-04-30T09:06:32;21.90;91.60
59572;DHT22;59406;45.602;11.904;2023-04-30T09:09:11;22.00;91.60
59572;DHT22;59406;45.602;11.904;2023-04-30T09:11:37;22.00;92.50
59572;DHT22;59406;45.602;11.904;2023-04-30T09:14:03;22.00;91.90
59572;DHT22;59406;45.602;11.904;2023-04-30T09:16:43;22.00;91.90
59572;DHT22;59406;45.602;11.904;2023-04-30T09:19:28;21.90;92.20
59572;DHT22;59406;45.602;11.904;2023-04-30T09:21:55;21.90;93.40
59572;DHT22;59406;45.602;11.904;2023-04-30T09:24:22;21.90;92.20
59572;DHT22;59406;45.602;11.904;2023-04-30T09:26:49;21.90;92.50
59572;DHT22;59406;45.602;11.904;2023-04-30T09:29:15;22.00;92.30
59572;DHT22;59406;45.602;11.904;2023-04-30T09:31:46;21.90;92.60
59572;DHT22;59406;45.602;11.904;2023-04-30T09:34:12;22.00;93.40
59572;DHT22;59406;45.602;11.904;2023-04-30T09:36:52;22.00;92.80
59572;DHT22;59406;45.602;11.904;2023-04-30T09:39:19;21.90;94.00
59572;DHT22;59406;45.602;11.904;2023-04-30T09:41:45;22.00;92.70
59572;DHT22;59406;45.602;11.904;2023-04-30T09:44:31;22.00;92.80
59572;DHT22;59406;45.602;11.904;2023-04-30T09:47:00;22.00;94.10
59572;DHT22;59406;45.602;11.904;2023-04-30T09:49:26;22.00;92.70
59572;DHT22;59406;45.602;11.904;2023-04-30T09:51:59;22.00;92.80
59572;DHT22;59406;45.602;11.904;2023-04-30T09:54:30;22.00;93.30
59572;DHT22;59406;45.602;11.904;2023-04-30T09:57:00;22.00;92.80
59572;DHT22;59406;45.602;11.904;2023-04-30T09:59:31;22.00;93.30
59572;DHT22;59406;45.602;11.904;2023-04-30T10:02:01;22.00;93.20
59572;DHT22;59406;45.602;11.904;2023-04-30T10:04:30;22.00;92.90
59572;DHT22;59406;45.602;11.904;2023-04-30T10:07:00;22.00;92.90
59572;DHT22;59406;45.602;11.904;2023-04-30T10:09:38;22.00;92.80
59572;DHT22;59406;45.602;11.904;2023-04-30T10:12:14;21.90;93.10
59572;DHT22;59406;45.602;11.904;2023-04-30T10:14:48;22.00;93.20
59572;DHT22;59406;45.602;11.904;2023-04-30T10:17:16;22.00;93.00
59572;DHT22;59406;45.602;11.904;2023-04-30T10:19:47;22.00;92.50
59572;DHT22;59406;45.602;11.904;2023-04-30T10:22:13;22.00;92.60
59572;DHT22;59406;45.602;11.904;2023-04-30T10:24:41;22.10;92.40
59572;DHT22;59406;45.602;11.904;2023-04-30T10:27:07;22.00;92.50
59572;DHT22;59406;45.602;11.904;2023-04-30T10:29:33;22.00;92.20
59572;DHT22;59406;45.602;11.904;2023-04-30T10:31:59;22.00;92.20
59572;DHT22;59406;45.602;11.904;2023-04-30T10:34:58;22.00;92.40
59572;DHT22;59406;45.602;11.904;2023-04-30T10:37:30;22.00;93.60
59572;DHT22;59406;45.602;11.904;2023-04-30T10:39:59;22.00;93.00
59572;DHT22;59406;45.602;11.904;2023-04-30T10:42:26;22.00;92.60
59572;DHT22;59406;45.602;11.904;2023-04-30T10:44:52;22.00;92.60
59572;DHT22;59406;45.602;11.904;2023-04-30T10:47:18;22.00;92.70
59572;DHT22;59406;45.602;11.904;2023-04-30T10:49:46;22.00;92.70
59572;DHT22;59406;45.602;11.904;2023-04-30T10:52:14;22.00;92.70
59572;DHT22;59406;45.602;11.904;2023-04-30T10:54:50;22.00;92.50
59572;DHT22;59406;45.602;11.904;2023-04-30T10:57:17;22.10;92.70
59572;DHT22;59406;45.602;11.904;2023-04-30T11:02:42;22.00;93.10
59572;DHT22;59406;45.602;11.904;2023-04-30T11:05:16;22.00;93.40
59572;DHT22;59406;45.602;11.904;2023-04-30T11:08:11;22.10;92.90
59572;DHT22;59406;45.602;11.904;2023-04-30T11:10:37;22.10;94.90
59572;DHT22;59406;45.602;11.904;2023-04-30T11:13:06;22.00;92.70
59572;DHT22;59406;45.602;11.904;2023-04-30T11:15:40;22.00;93.00
59572;DHT22;59406;45.602;11.904;2023-04-30T11:18:07;22.10;93.50
59572;DHT22;59406;45.602;11.904;2023-04-30T11:20:39;22.10;92.80
59572;DHT22;59406;45.602;11.904;2023-04-30T11:23:14;22.10;93.70
59572;DHT22;59406;45.602;11.904;2023-04-30T11:25:41;22.10;93.90
59572;DHT22;59406;45.602;11.904;2023-04-30T11:28:12;22.20;93.00
59572;DHT22;59406;45.602;11.904;2023-04-30T11:30:39;22.10;93.20
59572;DHT22;59406;45.602;11.904;2023-04-30T11:33:06;22.10;93.10
59572;DHT22;59406;45.602;11.904;2023-04-30T11:35:33;22.10;93.30
59572;DHT22;59406;45.602;11.904;2023-04-30T11:38:01;22.10;93.30
59572;DHT22;59406;45.602;11.904;2023-04-30T11:40:34;22.20;93.30
59572;DHT22;59406;45.602;11.904;2023-04-30T11:43:00;22.20;94.10
59572;DHT22;59406;45.602;11.904;2023-04-30T11:45:26;22.10;93.50
59572;DHT22;59406;45.602;11.904;2023-04-30T11:47:53;22.20;93.50
59572;DHT22;59406;45.602;11.904;2023-04-30T11:50:21;22.10;93.70
59572;DHT22;59406;45.602;11.904;2023-04-30T11:52:57;22.20;93.80
59572;DHT22;59406;45.602;11.904;2023-04-30T11:55:25;22.20;94.10
59572;DHT22;59406;45.602;11.904;2023-04-30T11:57:54;22.20;93.70
59572;DHT22;59406;45.602;11.904;2023-04-30T12:00:26;22.20;93.90
59572;DHT22;59406;45.602;11.904;2023-04-30T12:02:53;22.20;93.70
59572;DHT22;59406;45.602;11.904;2023-04-30T12:05:23;22.20;93.70
59572;DHT22;59406;45.602;11.904;2023-04-30T12:07:58;22.20;93.80
59572;DHT22;59406;45.602;11.904;2023-04-30T12:10:25;22.20;94.60
59572;DHT22;59406;45.602;11.904;2023-04-30T12:12:52;22.20;93.80
59572;DHT22;59406;45.602;11.904;2023-04-30T12:15:21;22.20;93.70
59572;DHT22;59406;45.602;11.904;2023-04-30T12:17:57;22.20;93.70
59572;DHT22;59406;45.602;11.904;2023-04-30T12:20:26;22.20;94.10
59572;DHT22;59406;45.602;11.904;2023-04-30T12:22:52;22.30;93.80
59572;DHT22;59406;45.602;11.904;2023-04-30T12:25:21;22.30;93.70
59572;DHT22;59406;45.602;11.904;2023-04-30T12:27:51;22.30;94.00
59572;DHT22;59406;45.602;11.904;2023-04-30T12:30:25;22.20;93.90
59572;DHT22;59406;45.602;11.904;2023-04-30T12:32:52;22.30;94.60
59572;DHT22;59406;45.602;11.904;2023-04-30T12:35:20;22.20;93.90
59572;DHT22;59406;45.602;11.904;2023-04-30T12:37:51;22.20;93.80
59572;DHT22;59406;45.602;11.904;2023-04-30T12:40:25;22.20;94.10
59572;DHT22;59406;45.602;11.904;2023-04-30T12:43:02;22.30;94.30
59572;DHT22;59406;45.602;11.904;2023-04-30T12:48:14;22.20;94.80
59572;DHT22;59406;45.602;11.904;2023-04-30T12:50:40;22.30;93.80
59572;DHT22;59406;45.602;11.904;2023-04-30T12:53:06;22.30;93.70
59572;DHT22;59406;45.602;11.904;2023-04-30T12:55:32;22.30;93.80
59572;DHT22;59406;45.602;11.904;2023-04-30T12:58:09;22.30;93.90
59572;DHT22;59406;45.602;11.904;2023-04-30T13:03:14;22.20;94.60
59572;DHT22;59406;45.602;11.904;2023-04-30T13:05:45;22.30;94.10
59572;DHT22;59406;45.602;11.904;2023-04-30T13:08:12;22.30;93.70
59572;DHT22;59406;45.602;11.904;2023-04-30T13:10:38;22.30;93.60
59572;DHT22;59406;45.602;11.904;2023-04-30T13:13:04;22.30;93.60
59572;DHT22;59406;45.602;11.904;2023-04-30T13:15:30;22.30;93.50
59572;DHT22;59406;45.602;11.904;2023-04-30T13:17:57;22.30;93.40
59572;DHT22;59406;45.602;11.904;2023-04-30T13:20:23;22.30;93.30
59572;DHT22;59406;45.602;11.904;2023-04-30T13:22:50;22.30;93.40
59572;DHT22;59406;45.602;11.904;2023-04-30T13:25:16;22.30;93.20
59572;DHT22;59406;45.602;11.904;2023-04-30T13:27:42;22.40;93.20
59572;DHT22;59406;45.602;11.904;2023-04-30T13:30:09;22.30;93.10
59572;DHT22;59406;45.602;11.904;2023-04-30T13:32:36;22.30;93.00
59572;DHT22;59406;45.602;11.904;2023-04-30T13:35:02;22.30;93.00
59572;DHT22;59406;45.602;11.904;2023-04-30T13:37:28;22.30;92.90
59572;DHT22;59406;45.602;11.904;2023-04-30T13:39:57;22.30;92.90
59572;DHT22;59406;45.602;11.904;2023-04-30T13:42:25;22.30;92.70
59572;DHT22;59406;45.602;11.904;2023-04-30T13:44:51;22.30;93.00
59572;DHT22;59406;45.602;11.904;2023-04-30T13:47:18;22.30;93.00
59572;DHT22;59406;45.602;11.904;2023-04-30T13:49:44;22.40;92.90
59572;DHT22;59406;45.602;11.904;2023-04-30T13:52:10;22.40;92.80
59572;DHT22;59406;45.602;11.904;2023-04-30T13:54:36;22.30;92.80
59572;DHT22;59406;45.602;11.904;2023-04-30T13:57:03;22.20;92.70
59572;DHT22;59406;45.602;11.904;2023-04-30T13:59:30;22.30;92.80
59572;DHT22;59406;45.602;11.904;2023-04-30T14:01:56;22.30;92.70
59572;DHT22;59406;45.602;11.904;2023-04-30T14:04:22;22.30;92.70
59572;DHT22;59406;45.602;11.904;2023-04-30T14:06:48;22.40;92.70
59572;DHT22;59406;45.602;11.904;2023-04-30T14:09:14;22.30;92.80
59572;DHT22;59406;45.602;11.904;2023-04-30T14:11:44;22.30;92.80
59572;DHT22;59406;45.602;11.904;2023-04-30T14:14:10;22.40;92.70
59572;DHT22;59406;45.602;11.904;2023-04-30T14:16:35;22.30;92.50
59572;DHT22;59406;45.602;11.904;2023-04-30T14:19:01;22.30;92.30
59572;DHT22;59406;45.602;11.904;2023-04-30T14:21:27;22.30;92.50
59572;DHT22;59406;45.602;11.904;2023-04-30T14:23:54;22.30;92.40
59572;DHT22;59406;45.602;11.904;2023-04-30T14:26:20;22.30;92.60
59572;DHT22;59406;45.602;11.904;2023-04-30T14:28:46;22.20;92.80
59572;DHT22;59406;45.602;11.904;2023-04-30T14:31:12;22.30;92.70
59572;DHT22;59406;45.602;11.904;2023-04-30T14:33:38;22.40;92.80
59572;DHT22;59406;45.602;11.904;2023-04-30T14:36:05;22.30;92.60
59572;DHT22;59406;45.602;11.904;2023-04-30T14:38:31;22.30;93.20
59572;DHT22;59406;45.602;11.904;2023-04-30T14:40:57;22.40;92.80
59572;DHT22;59406;45.602;11.904;2023-04-30T14:43:23;22.40;92.80
59572;DHT22;59406;45.602;11.904;2023-04-30T14:45:50;22.40;92.80
59572;DHT22;59406;45.602;11.904;2023-04-30T14:48:17;22.40;92.70
59572;DHT22;59406;45.602;11.904;2023-04-30T14:50:43;22.40;92.70
59572;DHT22;59406;45.602;11.904;2023-04-30T14:53:10;22.40;92.70
59572;DHT22;59406;45.602;11.904;2023-04-30T14:55:39;22.40;92.70
59572;DHT22;59406;45.602;11.904;2023-04-30T14:58:05;22.40;92.70
59572;DHT22;59406;45.602;11.904;2023-04-30T15:00:31;22.40;92.60
59572;DHT22;59406;45.602;11.904;2023-04-30T15:02:58;22.40;92.70
59572;DHT22;59406;45.602;11.904;2023-04-30T15:05:24;22.30;92.60
59572;DHT22;59406;45.602;11.904;2023-04-30T15:07:50;22.40;92.70
59572;DHT22;59406;45.602;11.904;2023-04-30T15:10:17;22.40;92.70
59572;DHT22;59406;45.602;11.904;2023-04-30T15:12:43;22.40;92.70
59572;DHT22;59406;45.602;11.904;2023-04-30T15:15:09;22.40;92.80
59572;DHT22;59406;45.602;11.904;2023-04-30T15:17:35;22.40;92.70
59572;DHT22;59406;45.602;11.904;2023-04-30T15:20:05;22.40;92.60
59572;DHT22;59406;45.602;11.904;2023-04-30T15:22:31;22.30;92.70
59572;DHT22;59406;45.602;11.904;2023-04-30T15:24:58;22.30;92.60
59572;DHT22;59406;45.602;11.904;2023-04-30T15:27:26;22.40;92.50
59572;DHT22;59406;45.602;11.904;2023-04-30T15:29:52;22.40;92.70
59572;DHT22;59406;45.602;11.904;2023-04-30T15:32:18;22.40;92.60
59572;DHT22;59406;45.602;11.904;2023-04-30T15:34:44;22.40;92.50
59572;DHT22;59406;45.602;11.904;2023-04-30T15:37:10;22.50;92.60
59572;DHT22;59406;45.602;11.904;2023-04-30T15:39:36;22.40;92.50
59572;DHT22;59406;45.602;11.904;2023-04-30T15:42:02;22.40;92.50